Time;durP1;ratioP1;P1;durP2;ratioP2;P2;SDS_P1;SDS_P2;PMS_P1;PMS_P2;Temp;Humidity;BMP_temperature;BMP_pressure;BME280_temperature;BME280_humidity;BME280_pressure;Samples;Min_cycle;Max_cycle;Signal;HPM_P1;HPM_P2
2023/01/31 00:01:12;;;;;;;13.52;1.80;;;;;;;;;;5006076;28;20442;-80
2023/01/31 00:03:47;;;;;;;11.25;1.75;;;;;;;;;;5025609;28;20423;-78
2023/01/31 00:06:16;;;;;;;16.27;1.77;;;;;;;;;;5026491;28;20435;-79
2023/01/31 00:08:45;;;;;;;11.18;1.40;;;;;;;;;;5008314;28;20785;-79
2023/01/31 00:11:18;;;;;;;12.00;1.67;;;;;;;;;;5014383;28;20457;-78
2023/01/31 00:13:52;;;;;;;11.10;1.70;;;;;;;;;;5010558;28;20424;-79
2023/01/31 00:16:25;;;;;;;10.02;1.92;;;;;;;;;;5009687;28;20432;-80
2023/01/31 00:18:54;;;;;;;11.18;1.80;;;;;;;;;;5020867;28;20421;-79
2023/01/31 00:21:23;;;;;;;10.85;1.77;;;;;;;;;;5016728;28;20429;-78
2023/01/31 00:23:51;;;;;;;9.82;1.42;;;;;;;;;;5023723;28;20428;-79
2023/01/31 00:26:25;;;;;;;12.70;1.83;;;;;;;;;;5025875;28;20434;-79
2023/01/31 00:28:59;;;;;;;15.75;1.98;;;;;;;;;;5019969;28;20432;-78
2023/01/31 00:31:33;;;;;;;13.55;2.05;;;;;;;;;;5024341;28;20427;-79
2023/01/31 00:34:07;;;;;;;16.23;1.80;;;;;;;;;;5016284;28;20429;-78
2023/01/31 00:36:35;;;;;;;20.85;2.40;;;;;;;;;;5034065;28;20441;-78
2023/01/31 00:39:09;;;;;;;11.95;1.55;;;;;;;;;;5015354;28;20427;-79
2023/01/31 00:41:45;;;;;;;19.17;1.83;;;;;;;;;;5022431;28;20418;-79
2023/01/31 00:44:17;;;;;;;14.02;2.03;;;;;;;;;;5022964;28;20429;-79
2023/01/31 00:46:50;;;;;;;15.23;2.30;;;;;;;;;;5015842;28;20431;-78
2023/01/31 00:49:19;;;;;;;12.43;1.77;;;;;;;;;;5014733;28;20892;-78
2023/01/31 00:51:47;;;;;;;18.65;1.90;;;;;;;;;;5024662;28;20436;-78
2023/01/31 00:54:20;;;;;;;16.10;2.22;;;;;;;;;;5026935;28;20419;-79
2023/01/31 00:56:53;;;;;;;16.90;2.00;;;;;;;;;;5026263;28;21127;-79
2023/01/31 00:59:20;;;;;;;15.80;1.80;;;;;;;;;;5015708;28;20426;-79
2023/01/31 01:01:54;;;;;;;15.25;1.90;;;;;;;;;;5012308;28;20440;-79
2023/01/31 01:04:24;;;;;;;16.85;2.50;;;;;;;;;;5008801;28;20423;-79
2023/01/31 01:06:51;;;;;;;17.07;2.50;;;;;;;;;;5011165;28;20793;-79
2023/01/31 01:09:24;;;;;;;14.18;2.40;;;;;;;;;;5017259;28;20425;-79
2023/01/31 01:11:57;;;;;;;15.05;1.85;;;;;;;;;;5020456;28;20448;-80
2023/01/31 01:14:25;;;;;;;17.77;2.53;;;;;;;;;;5026791;28;20867;-79
2023/01/31 01:16:53;;;;;;;19.02;2.25;;;;;;;;;;5010610;28;20426;-80
2023/01/31 01:19:27;;;;;;;16.73;2.30;;;;;;;;;;5013460;28;20500;-79
2023/01/31 01:21:54;;;;;;;12.88;1.77;;;;;;;;;;5002644;28;21300;-79
2023/01/31 01:24:27;;;;;;;16.58;1.85;;;;;;;;;;5018390;28;20415;-79
2023/01/31 01:27:03;;;;;;;14.27;2.22;;;;;;;;;;5015647;28;20418;-78
2023/01/31 01:29:37;;;;;;;16.90;2.20;;;;;;;;;;5024755;28;20737;-78
2023/01/31 01:32:10;;;;;;;16.25;2.30;;;;;;;;;;5022098;28;20433;-79
2023/01/31 01:34:44;;;;;;;16.35;1.90;;;;;;;;;;5022711;28;20433;-78
2023/01/31 01:37:19;;;;;;;13.13;1.90;;;;;;;;;;5042539;28;21212;-79
2023/01/31 01:39:52;;;;;;;15.00;1.80;;;;;;;;;;4999183;28;20424;-80
2023/01/31 01:42:26;;;;;;;16.35;1.90;;;;;;;;;;5025400;28;20438;-79
2023/01/31 01:44:54;;;;;;;15.05;2.17;;;;;;;;;;5034774;28;20415;-79
2023/01/31 01:47:33;;;;;;;16.05;1.70;;;;;;;;;;5024059;28;20415;-78
2023/01/31 01:50:04;;;;;;;12.93;1.70;;;;;;;;;;5024753;28;20430;-79
2023/01/31 01:52:39;;;;;;;19.25;2.05;;;;;;;;;;5025792;28;20845;-79
2023/01/31 01:55:14;;;;;;;15.95;2.00;;;;;;;;;;5011137;28;20782;-79
2023/01/31 01:57:44;;;;;;;13.63;1.88;;;;;;;;;;5021574;28;20428;-79
2023/01/31 02:00:20;;;;;;;15.73;2.15;;;;;;;;;;5003391;28;20436;-80
2023/01/31 02:02:49;;;;;;;14.63;1.65;;;;;;;;;;5020764;28;20444;-79
2023/01/31 02:05:21;;;;;;;16.55;2.63;;;;;;;;;;5020808;28;20429;-79
2023/01/31 02:07:54;;;;;;;15.47;1.87;;;;;;;;;;5018756;28;20477;-78
2023/01/31 02:10:24;;;;;;;18.40;1.98;;;;;;;;;;5016506;28;20425;-78
2023/01/31 02:12:51;;;;;;;16.42;1.80;;;;;;;;;;4999834;28;20425;-79
2023/01/31 02:15:21;;;;;;;16.20;1.92;;;;;;;;;;5026583;28;20419;-80
2023/01/31 02:17:49;;;;;;;12.40;1.63;;;;;;;;;;5022189;28;20443;-79
2023/01/31 02:20:41;;;;;;;13.80;1.60;;;;;;;;;;5032455;28;20792;-79
2023/01/31 02:23:19;;;;;;;12.80;1.55;;;;;;;;;;5023287;28;20762;-78
2023/01/31 02:26:16;;;;;;;13.57;1.52;;;;;;;;;;5004646;28;20424;-80
2023/01/31 02:29:14;;;;;;;10.73;1.80;;;;;;;;;;5012202;28;20432;-78
2023/01/31 02:31:54;;;;;;;8.02;1.15;;;;;;;;;;4960994;28;20428;-78
2023/01/31 02:34:34;;;;;;;12.48;1.58;;;;;;;;;;5007253;28;20403;-79
2023/01/31 02:37:09;;;;;;;12.30;1.80;;;;;;;;;;5009518;28;20424;-79
2023/01/31 02:39:39;;;;;;;12.25;1.70;;;;;;;;;;5003532;28;20793;-79
2023/01/31 02:42:15;;;;;;;14.33;2.10;;;;;;;;;;5024068;28;20415;-80
2023/01/31 02:45:00;;;;;;;10.63;1.67;;;;;;;;;;5013232;28;20434;-78
2023/01/31 02:47:33;;;;;;;12.50;1.75;;;;;;;;;;5015122;28;20436;-79
2023/01/31 02:50:12;;;;;;;14.00;1.50;;;;;;;;;;5013523;28;20428;-78
2023/01/31 02:52:48;;;;;;;15.90;2.22;;;;;;;;;;5011168;28;20426;-79
2023/01/31 02:58:05;;;;;;;13.15;2.05;;;;;;;;;;5023623;28;20409;-80
2023/01/31 03:00:39;;;;;;;14.10;1.85;;;;;;;;;;5024942;28;20414;-80
2023/01/31 03:03:17;;;;;;;14.05;1.80;;;;;;;;;;5010994;28;20429;-80
2023/01/31 03:06:09;;;;;;;13.73;1.80;;;;;;;;;;5022664;28;20451;-78
2023/01/31 03:08:38;;;;;;;18.20;1.95;;;;;;;;;;5017492;28;20426;-78
2023/01/31 03:11:12;;;;;;;13.52;1.65;;;;;;;;;;5014571;28;20426;-78
2023/01/31 03:13:47;;;;;;;15.35;2.55;;;;;;;;;;5015219;28;20422;-79
2023/01/31 03:19:27;;;;;;;19.93;1.97;;;;;;;;;;4975117;28;21299;-80
2023/01/31 03:22:06;;;;;;;17.27;1.90;;;;;;;;;;4961965;28;20420;-79
2023/01/31 03:24:39;;;;;;;15.70;1.92;;;;;;;;;;5000362;28;20418;-79
2023/01/31 03:27:12;;;;;;;11.68;2.03;;;;;;;;;;5005704;28;20420;-79
2023/01/31 03:29:47;;;;;;;17.40;1.95;;;;;;;;;;5020940;28;20415;-78
2023/01/31 03:32:23;;;;;;;15.27;1.88;;;;;;;;;;5031137;28;20423;-78
2023/01/31 03:34:56;;;;;;;21.17;2.13;;;;;;;;;;5026429;28;20455;-77
2023/01/31 03:37:30;;;;;;;16.73;2.03;;;;;;;;;;5009629;28;20569;-78
2023/01/31 03:40:10;;;;;;;16.67;2.40;;;;;;;;;;5009330;28;20424;-79
2023/01/31 03:42:46;;;;;;;15.88;2.25;;;;;;;;;;5004192;28;20434;-79
2023/01/31 03:45:21;;;;;;;20.17;2.42;;;;;;;;;;5024333;28;20432;-79
2023/01/31 03:47:54;;;;;;;17.33;2.00;;;;;;;;;;5023599;28;20439;-78
2023/01/31 03:50:28;;;;;;;21.08;2.25;;;;;;;;;;5008378;28;20415;-79
2023/01/31 03:53:00;;;;;;;17.48;2.08;;;;;;;;;;5011185;28;20428;-79
2023/01/31 03:55:35;;;;;;;17.15;1.83;;;;;;;;;;5022825;28;20791;-78
2023/01/31 03:58:04;;;;;;;19.77;1.90;;;;;;;;;;5023024;28;20917;-78
2023/01/31 04:00:34;;;;;;;14.40;1.75;;;;;;;;;;5013753;28;20428;-78
2023/01/31 04:03:10;;;;;;;19.65;2.55;;;;;;;;;;5017438;28;20892;-79
2023/01/31 04:05:43;;;;;;;15.63;1.92;;;;;;;;;;5008677;28;20426;-79
2023/01/31 04:08:20;;;;;;;13.02;1.65;;;;;;;;;;5024343;28;20433;-79
2023/01/31 04:10:57;;;;;;;17.30;1.80;;;;;;;;;;5013227;28;20423;-79
2023/01/31 04:13:30;;;;;;;14.00;1.70;;;;;;;;;;5024481;28;20793;-79
2023/01/31 04:16:03;;;;;;;13.30;1.70;;;;;;;;;;5009687;28;20419;-78
2023/01/31 04:18:31;;;;;;;15.27;1.90;;;;;;;;;;5021111;28;20426;-79
2023/01/31 04:21:04;;;;;;;15.85;2.22;;;;;;;;;;5026254;28;20910;-78
2023/01/31 04:23:33;;;;;;;14.95;1.90;;;;;;;;;;5018906;28;20434;-79
2023/01/31 04:26:01;;;;;;;13.10;1.92;;;;;;;;;;5025965;28;20423;-79
2023/01/31 04:28:29;;;;;;;11.77;2.03;;;;;;;;;;5014075;28;20772;-78
2023/01/31 04:30:57;;;;;;;15.85;1.50;;;;;;;;;;5014494;28;20423;-79
2023/01/31 04:33:25;;;;;;;12.55;1.77;;;;;;;;;;5029239;28;20775;-80
2023/01/31 04:35:58;;;;;;;15.63;2.13;;;;;;;;;;5012436;28;20432;-78
2023/01/31 04:38:26;;;;;;;12.45;1.80;;;;;;;;;;5012032;28;20477;-79
2023/01/31 04:41:00;;;;;;;13.15;2.00;;;;;;;;;;5026364;28;20910;-79
2023/01/31 04:43:28;;;;;;;11.13;1.70;;;;;;;;;;5024817;28;20407;-79
2023/01/31 04:46:01;;;;;;;15.05;2.08;;;;;;;;;;5024314;28;20791;-78
2023/01/31 04:48:29;;;;;;;19.95;1.80;;;;;;;;;;5022258;28;20768;-79
2023/01/31 04:51:01;;;;;;;13.38;1.92;;;;;;;;;;5018997;28;21188;-79
2023/01/31 04:53:29;;;;;;;19.15;2.00;;;;;;;;;;5024871;28;20907;-78
2023/01/31 04:55:57;;;;;;;12.15;2.03;;;;;;;;;;4999894;28;20412;-78
2023/01/31 04:58:31;;;;;;;14.00;1.95;;;;;;;;;;5020013;28;21001;-78
2023/01/31 05:01:04;;;;;;;17.02;2.22;;;;;;;;;;5023782;28;20421;-80
2023/01/31 05:03:37;;;;;;;11.68;1.90;;;;;;;;;;5021615;28;20427;-78
2023/01/31 05:06:05;;;;;;;16.08;2.20;;;;;;;;;;5007913;28;20432;-80
2023/01/31 05:08:32;;;;;;;14.15;2.05;;;;;;;;;;5029998;28;20421;-79
2023/01/31 05:11:05;;;;;;;16.60;2.20;;;;;;;;;;5019500;28;20428;-79
2023/01/31 05:13:40;;;;;;;15.88;2.55;;;;;;;;;;5018572;28;20421;-79
2023/01/31 05:16:10;;;;;;;15.88;2.22;;;;;;;;;;5023006;28;20900;-79
2023/01/31 05:18:38;;;;;;;18.60;2.47;;;;;;;;;;5023309;28;20867;-79
2023/01/31 05:21:08;;;;;;;17.90;2.72;;;;;;;;;;5011312;28;20418;-80
2023/01/31 05:23:41;;;;;;;17.00;2.55;;;;;;;;;;5022646;28;20912;-79
2023/01/31 05:26:14;;;;;;;15.50;2.58;;;;;;;;;;5025878;28;20880;-79
2023/01/31 05:28:48;;;;;;;12.00;2.30;;;;;;;;;;4999150;28;20753;-79
2023/01/31 05:31:21;;;;;;;16.40;2.40;;;;;;;;;;5010047;28;20917;-79
2023/01/31 05:33:54;;;;;;;20.77;2.47;;;;;;;;;;5019966;28;20418;-79
2023/01/31 05:36:22;;;;;;;11.82;1.95;;;;;;;;;;5026460;28;20983;-79
2023/01/31 05:38:50;;;;;;;;;;;;;;;;;;5007604;28;20050;-79
2023/01/31 05:41:17;;;;;;;9.70;1.38;;;;;;;;;;5010082;28;19925;-79
2023/01/31 05:43:45;;;;;;;;;;;;;;;;;;5013476;28;20060;-80
2023/01/31 05:46:14;;;;;;;10.10;2.00;;;;;;;;;;5026248;28;20275;-80
2023/01/31 05:48:46;;;;;;;7.05;1.70;;;;;;;;;;5005115;28;20056;-80
2023/01/31 05:51:19;;;;;;;8.82;1.52;;;;;;;;;;5018541;28;20414;-80
2023/01/31 05:53:47;;;;;;;10.55;1.60;;;;;;;;;;5001497;28;20065;-81
2023/01/31 05:56:20;;;;;;;8.82;2.70;;;;;;;;;;5025547;28;20052;-80
2023/01/31 05:58:49;;;;;;;9.82;1.92;;;;;;;;;;5020258;28;20387;-80
2023/01/31 06:01:24;;;;;;;10.48;1.92;;;;;;;;;;5024631;28;20856;-81
2023/01/31 06:03:57;;;;;;;8.52;2.28;;;;;;;;;;5010696;28;20540;-80
2023/01/31 06:06:25;;;;;;;;;;;;;;;;;;5004030;28;20050;-80
2023/01/31 06:08:52;;;;;;;4.25;1.67;;;;;;;;;;5023333;28;19925;-80
2023/01/31 06:11:25;;;;;;;13.25;2.10;;;;;;;;;;5022755;28;20559;-79
2023/01/31 06:13:58;;;;;;;4.75;2.15;;;;;;;;;;5019197;28;20053;-81
2023/01/31 06:16:32;;;;;;;8.88;2.80;;;;;;;;;;5004432;28;20049;-82
2023/01/31 06:19:05;;;;;;;5.05;1.90;;;;;;;;;;4992581;28;20127;-82
2023/01/31 06:21:38;;;;;;;12.68;2.33;;;;;;;;;;5016522;28;20045;-81
2023/01/31 06:24:11;;;;;;;5.65;2.15;;;;;;;;;;5014452;28;20048;-81
2023/01/31 06:26:38;;;;;;;;;;;;;;;;;;4995985;28;20049;-81
2023/01/31 06:29:11;;;;;;;16.73;2.35;;;;;;;;;;4992340;28;21366;-81
2023/01/31 06:31:43;;;;;;;9.23;1.70;;;;;;;;;;4994129;28;20059;-81
2023/01/31 06:34:10;;;;;;;10.88;2.03;;;;;;;;;;5015843;28;20745;-82
2023/01/31 06:36:43;;;;;;;10.88;2.30;;;;;;;;;;5010284;28;20388;-81
2023/01/31 06:39:16;;;;;;;20.60;2.70;;;;;;;;;;5003893;28;20061;-81
2023/01/31 06:41:48;;;;;;;6.22;1.77;;;;;;;;;;5002687;28;20072;-81
2023/01/31 06:44:16;;;;;;;;;;;;;;;;;;5020854;28;20052;-81
2023/01/31 06:46:50;;;;;;;3.10;0.93;;;;;;;;;;5014838;28;19929;-81
2023/01/31 06:49:23;;;;;;;12.93;1.83;;;;;;;;;;5016468;28;20053;-80
2023/01/31 06:51:50;;;;;;;9.48;1.80;;;;;;;;;;4996961;28;20049;-81
2023/01/31 06:54:18;;;;;;;;;;;;;;;;;;4997959;28;20068;-82
2023/01/31 06:56:46;;;;;;;4.30;1.02;;;;;;;;;;5015626;28;19924;-81
2023/01/31 06:59:19;;;;;;;6.63;1.35;;;;;;;;;;5014732;28;20111;-81
2023/01/31 07:01:53;;;;;;;9.90;1.50;;;;;;;;;;4999613;28;20057;-81
2023/01/31 07:04:26;;;;;;;5.93;1.63;;;;;;;;;;5017194;28;20487;-81
2023/01/31 07:06:58;;;;;;;9.65;1.33;;;;;;;;;;5014976;28;20057;-81
2023/01/31 07:09:31;;;;;;;13.60;1.98;;;;;;;;;;5016877;28;20566;-81
2023/01/31 07:12:04;;;;;;;5.38;1.27;;;;;;;;;;5002034;28;20064;-84
2023/01/31 07:14:32;;;;;;;8.98;1.55;;;;;;;;;;5022362;28;20718;-82
2023/01/31 07:17:00;;;;;;;;;;;;;;;;;;5018132;28;20049;-82
2023/01/31 07:19:34;;;;;;;10.65;1.48;;;;;;;;;;5005576;28;19921;-81
2023/01/31 07:22:01;;;;;;;15.55;1.85;;;;;;;;;;5000180;28;20061;-81
2023/01/31 07:24:29;;;;;;;;;;;;;;;;;;5024677;28;20561;-80
2023/01/31 07:26:56;;;;;;;;;;;;;;;;;;5014281;28;19929;-81
2023/01/31 07:29:29;;;;;;;9.90;1.35;;;;;;;;;;5018197;28;19929;-81
2023/01/31 07:32:02;;;;;;;5.97;1.00;;;;;;;;;;5016695;28;20045;-81
2023/01/31 07:34:36;;;;;;;9.50;1.30;;;;;;;;;;5002153;28;20067;-81
2023/01/31 07:37:04;;;;;;;7.43;1.13;;;;;;;;;;5020935;28;20057;-82
2023/01/31 07:39:32;;;;;;;6.97;1.27;;;;;;;;;;5000756;28;20053;-82
2023/01/31 07:42:04;;;;;;;10.60;1.77;;;;;;;;;;4997178;28;20528;-81
2023/01/31 07:44:37;;;;;;;7.65;1.33;;;;;;;;;;5022428;28;20433;-82
2023/01/31 07:47:10;;;;;;;14.20;1.60;;;;;;;;;;5024055;28;20072;-82
2023/01/31 07:49:44;;;;;;;7.18;1.75;;;;;;;;;;5004654;28;20064;-82
2023/01/31 07:52:12;;;;;;;7.25;1.98;;;;;;;;;;5016753;28;20095;-80
2023/01/31 07:54:45;;;;;;;6.10;1.17;;;;;;;;;;5003391;28;20056;-81
2023/01/31 07:57:17;;;;;;;3.50;1.08;;;;;;;;;;5018458;28;20041;-81
2023/01/31 07:59:50;;;;;;;10.05;1.48;;;;;;;;;;5016449;28;20055;-81
2023/01/31 08:05:15;;;;;;;17.15;2.35;;;;;;;;;;5003677;28;20061;-81
2023/01/31 08:08:09;;;;;;;12.32;1.85;;;;;;;;;;5017042;28;20045;-81
2023/01/31 08:10:35;;;;;;;9.48;1.77;;;;;;;;;;5025038;28;20053;-82
2023/01/31 08:13:03;;;;;;;;;;;;;;;;;;5025116;28;20053;-81
2023/01/31 08:15:36;;;;;;;4.63;1.20;;;;;;;;;;5005243;28;19929;-81
2023/01/31 08:18:09;;;;;;;11.90;1.75;;;;;;;;;;5020446;28;20052;-81
2023/01/31 08:20:43;;;;;;;17.73;2.15;;;;;;;;;;5017650;28;20067;-81
2023/01/31 08:23:15;;;;;;;2.05;0.85;;;;;;;;;;5003159;28;20060;-81
2023/01/31 08:25:48;;;;;;;20.90;3.53;;;;;;;;;;5024169;28;20056;-80
2023/01/31 08:28:21;;;;;;;5.72;1.95;;;;;;;;;;5021653;28;20044;-83
2023/01/31 08:30:49;;;;;;;;;;;;;;;;;;5020786;28;20042;-81
2023/01/31 08:33:16;;;;;;;;;;;;;;;;;;5020265;28;19929;-81
2023/01/31 08:35:50;;;;;;;10.02;2.60;;;;;;;;;;5014058;28;19929;-81
2023/01/31 08:38:23;;;;;;;6.10;2.50;;;;;;;;;;5016717;28;20703;-81
2023/01/31 08:40:58;;;;;;;9.80;2.28;;;;;;;;;;5020619;28;20056;-81
2023/01/31 08:43:31;;;;;;;11.82;2.30;;;;;;;;;;5018342;28;20074;-83
2023/01/31 08:46:04;;;;;;;14.23;2.92;;;;;;;;;;5004721;28;20072;-81
2023/01/31 08:48:38;;;;;;;18.48;3.42;;;;;;;;;;5002750;28;20053;-83
2023/01/31 08:51:13;;;;;;;16.95;2.28;;;;;;;;;;5024115;28;20070;-82
2023/01/31 08:53:42;;;;;;;13.23;3.25;;;;;;;;;;5016175;28;20053;-83
2023/01/31 08:56:15;;;;;;;13.55;3.10;;;;;;;;;;5001199;28;20752;-82
2023/01/31 08:58:48;;;;;;;4.65;2.10;;;;;;;;;;5003505;28;20073;-81
2023/01/31 09:01:21;;;;;;;11.82;3.22;;;;;;;;;;5001475;28;20060;-81
2023/01/31 09:03:55;;;;;;;5.75;2.42;;;;;;;;;;5014646;28;20080;-82
2023/01/31 09:06:29;;;;;;;9.57;2.35;;;;;;;;;;5001549;28;20057;-81
2023/01/31 09:09:02;;;;;;;7.80;2.45;;;;;;;;;;4998897;28;20056;-83
2023/01/31 09:11:35;;;;;;;7.80;2.38;;;;;;;;;;5019867;28;20049;-82
2023/01/31 09:14:08;;;;;;;12.38;2.42;;;;;;;;;;4999310;28;20049;-82
2023/01/31 09:16:41;;;;;;;6.53;2.63;;;;;;;;;;5020656;28;20045;-83
2023/01/31 09:19:09;;;;;;;12.90;2.90;;;;;;;;;;4999469;28;20585;-82
2023/01/31 09:21:37;;;;;;;;;;;;;;;;;;5018813;28;20059;-82
2023/01/31 09:24:04;;;;;;;;;;;;;;;;;;5001303;28;19929;-82
2023/01/31 09:26:38;;;;;;;4.07;1.60;;;;;;;;;;5017554;28;21459;-82
2023/01/31 09:29:11;;;;;;;12.27;2.60;;;;;;;;;;5021862;28;20037;-83
2023/01/31 09:31:44;;;;;;;8.48;3.15;;;;;;;;;;5003078;28;20061;-83
2023/01/31 09:34:12;;;;;;;;;;;;;;;;;;5002673;28;20061;-81
2023/01/31 09:36:45;;;;;;;3.72;1.42;;;;;;;;;;5019462;28;19935;-82
2023/01/31 09:39:18;;;;;;;10.93;2.35;;;;;;;;;;5023272;28;20041;-81
2023/01/31 09:41:55;;;;;;;16.83;3.35;;;;;;;;;;5014494;28;21976;-83
2023/01/31 09:44:25;;;;;;;7.30;2.58;;;;;;;;;;5001567;28;20068;-85
2023/01/31 09:46:59;;;;;;;7.93;2.13;;;;;;;;;;5001348;28;20064;-81
2023/01/31 09:49:37;;;;;;;4.15;2.08;;;;;;;;;;5004639;28;20064;-80
2023/01/31 09:52:11;;;;;;;15.88;3.55;;;;;;;;;;5018679;28;21633;-83
2023/01/31 09:54:39;;;;;;;9.52;2.30;;;;;;;;;;5021720;28;20061;-80
2023/01/31 09:57:15;;;;;;;7.07;2.80;;;;;;;;;;5015777;28;20054;-80
2023/01/31 09:59:49;;;;;;;10.57;2.85;;;;;;;;;;5017309;28;20072;-82
2023/01/31 10:02:30;;;;;;;10.65;2.10;;;;;;;;;;5002276;28;20829;-81
2023/01/31 10:05:04;;;;;;;9.90;2.35;;;;;;;;;;4992757;28;20057;-82
2023/01/31 10:07:33;;;;;;;4.75;2.47;;;;;;;;;;4997189;28;20063;-83
2023/01/31 10:10:12;;;;;;;11.15;3.00;;;;;;;;;;5001241;28;20049;-81
2023/01/31 10:12:44;;;;;;;9.55;3.38;;;;;;;;;;5014790;28;20053;-82
2023/01/31 10:15:20;;;;;;;8.80;2.47;;;;;;;;;;5020465;28;20049;-81
2023/01/31 10:17:54;;;;;;;17.45;3.22;;;;;;;;;;4992150;28;20060;-81
2023/01/31 10:20:29;;;;;;;6.07;2.65;;;;;;;;;;4996713;28;20045;-82
2023/01/31 10:23:04;;;;;;;8.32;2.92;;;;;;;;;;5016010;28;20053;-83
2023/01/31 10:25:34;;;;;;;5.15;1.90;;;;;;;;;;5015373;28;20966;-81
2023/01/31 10:28:05;;;;;;;8.55;2.25;;;;;;;;;;5001482;28;20080;-81
2023/01/31 10:30:39;;;;;;;7.50;3.08;;;;;;;;;;5013316;28;20056;-81
2023/01/31 10:33:16;;;;;;;9.13;2.90;;;;;;;;;;5014677;28;20049;-81
2023/01/31 10:35:50;;;;;;;9.73;2.50;;;;;;;;;;5012952;28;20064;-81
2023/01/31 10:38:21;;;;;;;11.48;2.60;;;;;;;;;;5012662;28;20057;-82
2023/01/31 10:40:57;;;;;;;5.88;2.92;;;;;;;;;;5013785;28;20054;-81
2023/01/31 10:43:36;;;;;;;5.53;2.22;;;;;;;;;;5018213;28;20048;-81
2023/01/31 10:46:10;;;;;;;7.88;2.58;;;;;;;;;;5013109;28;20057;-82
2023/01/31 10:48:39;;;;;;;6.93;2.13;;;;;;;;;;5004842;28;20065;-80
2023/01/31 10:51:13;;;;;;;4.05;2.00;;;;;;;;;;5011461;28;20064;-82
2023/01/31 10:53:53;;;;;;;8.07;2.75;;;;;;;;;;5019872;28;20057;-82
2023/01/31 10:56:28;;;;;;;6.90;1.90;;;;;;;;;;5007051;28;20076;-82
2023/01/31 10:58:58;;;;;;;8.60;2.67;;;;;;;;;;5021339;28;20053;-82
2023/01/31 11:01:25;;;;;;;5.68;1.80;;;;;;;;;;5002465;28;20060;-82
2023/01/31 11:03:54;;;;;;;8.35;3.22;;;;;;;;;;5001613;28;20068;-82
2023/01/31 11:06:23;;;;;;;4.50;2.22;;;;;;;;;;5029464;28;20061;-82
2023/01/31 11:08:57;;;;;;;4.72;2.45;;;;;;;;;;5016207;28;21232;-80
2023/01/31 11:11:26;;;;;;;6.65;2.38;;;;;;;;;;5018899;28;20060;-82
2023/01/31 11:14:01;;;;;;;7.30;2.63;;;;;;;;;;5002069;28;20057;-82
2023/01/31 11:16:31;;;;;;;5.72;2.42;;;;;;;;;;4977315;28;20490;-81
2023/01/31 11:19:00;;;;;;;10.25;3.03;;;;;;;;;;4988899;28;20607;-81
2023/01/31 11:21:34;;;;;;;4.32;2.17;;;;;;;;;;4990370;28;20065;-82
2023/01/31 11:24:15;;;;;;;11.18;2.90;;;;;;;;;;4989083;28;20050;-83
2023/01/31 11:26:50;;;;;;;5.68;2.63;;;;;;;;;;4997872;28;20774;-80
2023/01/31 11:29:22;;;;;;;6.13;2.90;;;;;;;;;;4989564;28;20053;-81
2023/01/31 11:31:56;;;;;;;4.82;2.35;;;;;;;;;;4991613;28;20061;-81
2023/01/31 11:34:24;;;;;;;9.90;3.03;;;;;;;;;;4988268;28;20061;-81
2023/01/31 11:37:03;;;;;;;6.07;2.90;;;;;;;;;;4988419;28;20058;-82
2023/01/31 11:39:32;;;;;;;5.25;2.78;;;;;;;;;;4993250;28;22234;-81
2023/01/31 11:42:05;;;;;;;10.90;3.50;;;;;;;;;;4982247;28;20061;-81
2023/01/31 11:44:34;;;;;;;3.38;1.90;;;;;;;;;;4973630;28;20684;-82
2023/01/31 11:47:12;;;;;;;8.10;2.97;;;;;;;;;;4990574;28;20053;-81
2023/01/31 11:49:49;;;;;;;4.50;2.47;;;;;;;;;;4987134;28;20057;-81
2023/01/31 11:52:18;;;;;;;5.63;2.58;;;;;;;;;;4987669;28;20061;-83
2023/01/31 11:54:52;;;;;;;6.05;2.78;;;;;;;;;;4990260;28;20056;-81
2023/01/31 11:57:22;;;;;;;3.55;1.77;;;;;;;;;;4979470;28;20062;-82
2023/01/31 11:59:57;;;;;;;6.45;2.53;;;;;;;;;;4994593;28;20054;-82
2023/01/31 12:02:27;;;;;;;8.63;2.72;;;;;;;;;;4976208;28;20054;-84
2023/01/31 12:04:55;;;;;;;3.75;1.98;;;;;;;;;;4970880;28;20058;-83
2023/01/31 12:07:43;;;;;;;5.20;2.50;;;;;;;;;;4971577;28;20053;-80
2023/01/31 12:10:32;;;;;;;3.40;1.90;;;;;;;;;;4985231;28;20423;-82
2023/01/31 12:13:01;;;;;;;3.15;1.75;;;;;;;;;;4993320;28;20049;-81
2023/01/31 12:15:35;;;;;;;5.90;1.92;;;;;;;;;;4992160;28;20054;-81
2023/01/31 12:18:03;;;;;;;3.17;1.60;;;;;;;;;;4973841;28;20088;-84
2023/01/31 12:20:37;;;;;;;4.07;1.77;;;;;;;;;;4982448;28;20053;-83
2023/01/31 12:23:14;;;;;;;3.17;1.85;;;;;;;;;;4983212;28;20713;-81
2023/01/31 12:25:47;;;;;;;3.35;1.75;;;;;;;;;;4983716;28;20091;-82
2023/01/31 12:28:26;;;;;;;2.22;1.25;;;;;;;;;;4999210;28;20060;-84
2023/01/31 12:31:02;;;;;;;2.90;1.60;;;;;;;;;;4987011;28;20054;-81
2023/01/31 12:33:42;;;;;;;2.00;1.30;;;;;;;;;;5003813;28;20052;-82
2023/01/31 12:36:24;;;;;;;2.92;1.52;;;;;;;;;;5002706;28;20526;-82
2023/01/31 12:39:14;;;;;;;3.08;1.40;;;;;;;;;;4988560;28;20076;-83
2023/01/31 12:41:53;;;;;;;1.67;1.02;;;;;;;;;;4979731;28;20053;-79
2023/01/31 12:44:31;;;;;;;4.03;1.77;;;;;;;;;;4982242;28;20674;-81
2023/01/31 12:47:13;;;;;;;1.85;1.20;;;;;;;;;;5003835;28;20063;-81
2023/01/31 12:49:48;;;;;;;2.13;1.50;;;;;;;;;;4980630;28;20065;-80
2023/01/31 12:52:19;;;;;;;2.65;1.00;;;;;;;;;;5000077;28;20054;-81
2023/01/31 12:54:59;;;;;;;2.15;1.30;;;;;;;;;;4999139;28;20046;-81
2023/01/31 12:57:35;;;;;;;1.85;1.08;;;;;;;;;;4997507;28;20065;-82
2023/01/31 13:00:10;;;;;;;4.88;1.60;;;;;;;;;;4983172;28;20060;-81
2023/01/31 13:02:52;;;;;;;1.63;1.05;;;;;;;;;;4996880;28;20049;-81
2023/01/31 13:05:27;;;;;;;0.50;0.50;;;;;;;;;;5007130;28;20058;-81
2023/01/31 13:08:02;;;;;;;1.27;0.90;;;;;;;;;;4996089;28;20065;-81
2023/01/31 13:10:35;;;;;;;1.92;1.10;;;;;;;;;;4999634;28;20037;-81
2023/01/31 13:13:04;;;;;;;2.58;1.30;;;;;;;;;;5007703;28;20065;-82
2023/01/31 13:15:40;;;;;;;1.58;0.75;;;;;;;;;;5000386;28;20054;-81
2023/01/31 13:18:11;;;;;;;4.07;1.10;;;;;;;;;;4974406;28;20390;-81
2023/01/31 13:20:46;;;;;;;0.60;0.50;;;;;;;;;;4997390;28;20054;-79
2023/01/31 13:23:18;;;;;;;0.68;0.65;;;;;;;;;;5017063;28;20065;-81
2023/01/31 13:25:54;;;;;;;2.33;0.90;;;;;;;;;;4995093;28;20057;-81
2023/01/31 13:28:24;;;;;;;2.03;0.90;;;;;;;;;;5008059;28;20065;-82
2023/01/31 13:30:55;;;;;;;1.52;0.73;;;;;;;;;;4993732;28;20056;-82
2023/01/31 13:33:30;;;;;;;1.67;0.82;;;;;;;;;;4996250;28;20057;-80
2023/01/31 13:36:01;;;;;;;1.30;0.88;;;;;;;;;;4996414;28;20064;-80
2023/01/31 13:38:34;;;;;;;1.02;0.77;;;;;;;;;;5013533;28;20065;-83
2023/01/31 13:41:08;;;;;;;1.48;0.73;;;;;;;;;;4998627;28;20064;-80
2023/01/31 13:43:41;;;;;;;1.42;0.70;;;;;;;;;;5012643;28;20057;-83
2023/01/31 13:46:16;;;;;;;0.80;0.60;;;;;;;;;;4999154;28;20042;-82
2023/01/31 13:48:51;;;;;;;1.38;0.70;;;;;;;;;;4996034;28;20063;-81
2023/01/31 13:51:22;;;;;;;0.70;0.65;;;;;;;;;;5017138;28;20053;-82
2023/01/31 13:53:58;;;;;;;1.30;0.70;;;;;;;;;;4993226;28;20074;-82
2023/01/31 13:56:28;;;;;;;2.17;0.95;;;;;;;;;;5013985;28;20053;-82
2023/01/31 13:59:01;;;;;;;1.60;0.95;;;;;;;;;;5001890;28;20541;-81
2023/01/31 14:01:36;;;;;;;1.23;0.80;;;;;;;;;;5009762;28;20702;-81
2023/01/31 14:04:28;;;;;;;2.20;1.08;;;;;;;;;;4998526;28;20153;-81
2023/01/31 14:07:21;;;;;;;3.45;1.08;;;;;;;;;;5011828;28;20058;-81
2023/01/31 14:10:08;;;;;;;2.42;0.88;;;;;;;;;;4997600;28;20042;-81
2023/01/31 14:12:42;;;;;;;3.97;1.25;;;;;;;;;;5015353;28;20088;-81
2023/01/31 14:15:36;;;;;;;2.67;1.30;;;;;;;;;;4996463;28;20045;-82
2023/01/31 14:18:09;;;;;;;5.38;0.98;;;;;;;;;;4970957;28;20053;-83
2023/01/31 14:20:42;;;;;;;3.40;1.30;;;;;;;;;;5013574;28;20058;-82
2023/01/31 14:23:45;;;;;;;2.25;1.15;;;;;;;;;;4994422;28;20064;-82
2023/01/31 14:26:31;;;;;;;5.63;1.33;;;;;;;;;;5001507;28;20058;-81
2023/01/31 14:29:10;;;;;;;3.53;1.17;;;;;;;;;;5008237;28;20102;-82
2023/01/31 14:31:43;;;;;;;2.42;1.08;;;;;;;;;;4993112;28;20062;-83
2023/01/31 14:34:17;;;;;;;2.63;1.15;;;;;;;;;;4996409;28;20056;-81
2023/01/31 14:36:52;;;;;;;2.63;0.85;;;;;;;;;;4995049;28;20058;-81
2023/01/31 14:39:43;;;;;;;2.67;1.15;;;;;;;;;;4994068;28;23411;-83
2023/01/31 14:42:49;;;;;;;2.97;1.40;;;;;;;;;;5000814;28;20042;-82
2023/01/31 14:45:24;;;;;;;4.38;1.70;;;;;;;;;;4994259;28;20057;-82
2023/01/31 14:48:04;;;;;;;5.13;1.63;;;;;;;;;;4999766;28;20069;-83
2023/01/31 14:50:44;;;;;;;1.35;0.73;;;;;;;;;;4998104;28;20058;-81
2023/01/31 14:53:25;;;;;;;4.47;1.10;;;;;;;;;;5018107;28;20065;-81
2023/01/31 14:56:03;;;;;;;4.35;1.38;;;;;;;;;;5004399;28;20060;-82
2023/01/31 14:58:36;;;;;;;7.43;0.88;;;;;;;;;;5000122;28;20101;-81
2023/01/31 15:01:07;;;;;;;6.75;1.05;;;;;;;;;;4994441;28;20080;-80
2023/01/31 15:03:48;;;;;;;5.63;1.45;;;;;;;;;;4996349;28;21885;-83
2023/01/31 15:06:21;;;;;;;2.17;1.17;;;;;;;;;;4996898;28;20054;-82
2023/01/31 15:08:50;;;;;;;3.10;1.55;;;;;;;;;;5000963;28;20056;-82
2023/01/31 15:11:33;;;;;;;4.28;1.45;;;;;;;;;;5005484;28;20084;-81
2023/01/31 15:14:20;;;;;;;3.03;1.20;;;;;;;;;;4996832;28;21017;-84
2023/01/31 15:16:59;;;;;;;3.75;1.20;;;;;;;;;;4975841;28;20410;-82
2023/01/31 15:19:30;;;;;;;3.13;0.82;;;;;;;;;;4996928;28;20084;-84
2023/01/31 15:22:04;;;;;;;8.38;1.23;;;;;;;;;;4996000;28;20060;-82
2023/01/31 15:24:33;;;;;;;3.92;1.10;;;;;;;;;;4995860;28;20057;-84
2023/01/31 15:27:02;;;;;;;7.18;1.73;;;;;;;;;;4999174;28;20083;-87